Weather at Miami International Airport

Public forecast

Using degrees Fahrenheit for public forecast. Weather courtesy of forecast.io.

Current aviation weather report (METAR) for Miami International Airport

Retrieved 2022/05/23 08:53 UTC (28 minutes ago):

KMIA 230853Z 10012KT 10SM SCT026 27/23 A3009 RMK AO2 SLP189 T02670228 56012

Aviation forecast (TAF) for Miami International Airport

Retrieved 2022/05/23 06:30 UTC (3 hours ago):

TAF KMIA 230527Z 2306/2412 11011KT P6SM SCT020 BKN200 FM231500 12014G24KT P6SM SCT025 SCT250 FM240200 10009KT P6SM FEW030 SCT250